Carlisle, Arkansas
Current Conditions -  °F | °C
As of 12:15 PM on Friday 24 Oct 2014 (Local Time) from KSGT Reporting Station
Clear Clear  
Wind Chill: 70°   Ceiling: Unl
Heat Index: 70°   Visibility: 10mi
Dew Point: 50°   Wind: 3mph
Humidity: 49%   Direction: 290°WNW
Pressure: 30.17"   Gusts: NA
Location:  34.78°N, 91.75°W
Report Text: KSGT 241715Z AUTO 29003KT 10SM CLR 21/10 A3017 RMK AO1
Loading
Personal Weather Stations






























Interactive Weather Map
Tropical Storm Tracking
New forecast layout! Learn more

10-Day Weather Forecast

Advertisements
Track Severe Weather on mobile